sensor_id;sensor_type;location;lat;lon;timestamp;pressure;altitude;pressure_sealevel;temperature;humidity
12215;BME280;6170;42.206;24.142;2024-02-21T00:00:03;99445.03;;;6.79;83.47
12215;BME280;6170;42.206;24.142;2024-02-21T00:02:30;99600.53;;;7.94;83.47
12215;BME280;6170;42.206;24.142;2024-02-21T00:04:57;99442.75;;;7.00;83.71
12215;BME280;6170;42.206;24.142;2024-02-21T00:07:24;99533.16;;;7.60;83.79
12215;BME280;6170;42.206;24.142;2024-02-21T00:09:52;99424.28;;;6.99;84.03
12215;BME280;6170;42.206;24.142;2024-02-21T00:12:19;99599.06;;;8.00;83.85
12215;BME280;6170;42.206;24.142;2024-02-21T00:14:46;99428.41;;;6.93;83.72
12215;BME280;6170;42.206;24.142;2024-02-21T00:17:13;99428.09;;;6.96;84.37
12215;BME280;6170;42.206;24.142;2024-02-21T00:19:40;99593.22;;;8.04;84.01
12215;BME280;6170;42.206;24.142;2024-02-21T00:22:07;99445.78;;;7.21;83.52
12215;BME280;6170;42.206;24.142;2024-02-21T00:24:34;99454.56;;;6.98;83.77
12215;BME280;6170;42.206;24.142;2024-02-21T00:27:03;99592.53;;;7.94;83.98
12215;BME280;6170;42.206;24.142;2024-02-21T00:29:30;99422.59;;;6.90;84.25
12215;BME280;6170;42.206;24.142;2024-02-21T00:31:57;99589.69;;;7.88;84.17
12215;BME280;6170;42.206;24.142;2024-02-21T00:34:23;99437.75;;;7.05;83.28
12215;BME280;6170;42.206;24.142;2024-02-21T00:36:50;99588.53;;;7.90;82.98
12215;BME280;6170;42.206;24.142;2024-02-21T00:39:17;99425.25;;;6.90;83.96
12215;BME280;6170;42.206;24.142;2024-02-21T00:41:44;99426.44;;;7.03;83.04
12215;BME280;6170;42.206;24.142;2024-02-21T00:44:12;99426.28;;;7.13;82.70
12215;BME280;6170;42.206;24.142;2024-02-21T00:46:39;99414.97;;;7.19;82.36
12215;BME280;6170;42.206;24.142;2024-02-21T00:49:06;99417.63;;;7.27;81.75
12215;BME280;6170;42.206;24.142;2024-02-21T00:51:33;99392.97;;;7.01;82.25
12215;BME280;6170;42.206;24.142;2024-02-21T00:54:00;99567.50;;;8.28;82.01
12215;BME280;6170;42.206;24.142;2024-02-21T00:56:28;99421.13;;;7.36;81.99
12215;BME280;6170;42.206;24.142;2024-02-21T00:58:55;99420.78;;;7.31;82.79
12215;BME280;6170;42.206;24.142;2024-02-21T01:01:24;99415.66;;;7.21;82.83
12215;BME280;6170;42.206;24.142;2024-02-21T01:03:51;99567.69;;;8.18;83.55
12215;BME280;6170;42.206;24.142;2024-02-21T01:06:19;99426.63;;;7.26;83.12
12215;BME280;6170;42.206;24.142;2024-02-21T01:08:46;99441.13;;;7.23;83.01
12215;BME280;6170;42.206;24.142;2024-02-21T01:11:13;99390.47;;;7.15;82.78
12215;BME280;6170;42.206;24.142;2024-02-21T01:13:40;99424.63;;;7.12;82.91
12215;BME280;6170;42.206;24.142;2024-02-21T01:16:07;99569.50;;;7.85;83.98
12215;BME280;6170;42.206;24.142;2024-02-21T01:18:37;99404.28;;;6.95;83.63
12215;BME280;6170;42.206;24.142;2024-02-21T01:21:04;99563.88;;;8.04;82.70
12215;BME280;6170;42.206;24.142;2024-02-21T01:23:32;99447.47;;;7.39;82.08
12215;BME280;6170;42.206;24.142;2024-02-21T01:25:59;99429.78;;;7.21;81.83
12215;BME280;6170;42.206;24.142;2024-02-21T01:28:26;99411.97;;;7.22;81.27
12215;BME280;6170;42.206;24.142;2024-02-21T01:30:53;99408.94;;;7.17;81.42
12215;BME280;6170;42.206;24.142;2024-02-21T01:33:20;99423.31;;;7.32;81.73
12215;BME280;6170;42.206;24.142;2024-02-21T01:35:48;99425.47;;;7.29;81.50
12215;BME280;6170;42.206;24.142;2024-02-21T01:38:15;99428.28;;;7.19;82.06
12215;BME280;6170;42.206;24.142;2024-02-21T01:40:42;99565.00;;;8.10;82.42
12215;BME280;6170;42.206;24.142;2024-02-21T01:43:16;99564.50;;;8.06;83.33
12215;BME280;6170;42.206;24.142;2024-02-21T01:45:43;99411.47;;;7.10;82.90
12215;BME280;6170;42.206;24.142;2024-02-21T01:48:13;99399.97;;;7.10;83.64
12215;BME280;6170;42.206;24.142;2024-02-21T01:50:40;99554.69;;;7.99;84.09
12215;BME280;6170;42.206;24.142;2024-02-21T01:53:08;99400.09;;;6.84;85.00
12215;BME280;6170;42.206;24.142;2024-02-21T01:55:36;99404.78;;;7.06;85.13
12215;BME280;6170;42.206;24.142;2024-02-21T01:58:03;99401.78;;;7.09;84.37
12215;BME280;6170;42.206;24.142;2024-02-21T02:00:31;99383.97;;;7.02;84.00
12215;BME280;6170;42.206;24.142;2024-02-21T02:02:59;99542.81;;;8.01;83.92
12215;BME280;6170;42.206;24.142;2024-02-21T02:05:26;99340.00;;;6.90;82.82
12215;BME280;6170;42.206;24.142;2024-02-21T02:07:53;99414.66;;;7.30;82.80
12215;BME280;6170;42.206;24.142;2024-02-21T02:10:22;99542.00;;;8.17;82.37
12215;BME280;6170;42.206;24.142;2024-02-21T02:12:49;99391.97;;;7.26;82.01
12215;BME280;6170;42.206;24.142;2024-02-21T02:15:15;99553.19;;;8.12;82.89
12215;BME280;6170;42.206;24.142;2024-02-21T02:17:42;99391.97;;;7.26;81.81
12215;BME280;6170;42.206;24.142;2024-02-21T02:20:10;99545.00;;;8.22;81.83
12215;BME280;6170;42.206;24.142;2024-02-21T02:22:39;99388.16;;;7.20;82.24
12215;BME280;6170;42.206;24.142;2024-02-21T02:25:09;99391.16;;;7.26;81.86
12215;BME280;6170;42.206;24.142;2024-02-21T02:27:41;99404.66;;;7.16;82.44
12215;BME280;6170;42.206;24.142;2024-02-21T02:30:11;99400.00;;;7.34;82.00
12215;BME280;6170;42.206;24.142;2024-02-21T02:32:38;99526.63;;;8.19;81.99
12215;BME280;6170;42.206;24.142;2024-02-21T02:35:05;99364.00;;;7.30;81.21
12215;BME280;6170;42.206;24.142;2024-02-21T02:37:32;99366.16;;;7.18;81.08
12215;BME280;6170;42.206;24.142;2024-02-21T02:39:59;99366.47;;;6.99;81.57
12215;BME280;6170;42.206;24.142;2024-02-21T02:42:27;99375.47;;;6.98;82.18
12215;BME280;6170;42.206;24.142;2024-02-21T02:44:54;99345.69;;;6.95;81.18
12215;BME280;6170;42.206;24.142;2024-02-21T02:47:22;99529.31;;;8.03;81.30
12215;BME280;6170;42.206;24.142;2024-02-21T02:49:49;99374.31;;;7.01;81.29
12215;BME280;6170;42.206;24.142;2024-02-21T02:52:16;99343.94;;;6.61;81.30
12215;BME280;6170;42.206;24.142;2024-02-21T02:54:43;99376.31;;;7.07;81.34
12215;BME280;6170;42.206;24.142;2024-02-21T02:57:10;99379.13;;;7.05;80.88
12215;BME280;6170;42.206;24.142;2024-02-21T02:59:39;99364.81;;;6.90;81.98
12215;BME280;6170;42.206;24.142;2024-02-21T03:02:06;99518.97;;;7.84;81.95
12215;BME280;6170;42.206;24.142;2024-02-21T03:04:33;99367.78;;;6.87;81.46
12215;BME280;6170;42.206;24.142;2024-02-21T03:07:00;99383.28;;;7.00;82.30
12215;BME280;6170;42.206;24.142;2024-02-21T03:09:27;99374.63;;;6.90;81.66
12215;BME280;6170;42.206;24.142;2024-02-21T03:11:54;99519.31;;;7.81;81.21
12215;BME280;6170;42.206;24.142;2024-02-21T03:14:27;99373.94;;;6.71;81.69
12215;BME280;6170;42.206;24.142;2024-02-21T03:16:56;99521.16;;;7.48;83.05
12215;BME280;6170;42.206;24.142;2024-02-21T03:19:23;99375.13;;;6.93;82.49
12215;BME280;6170;42.206;24.142;2024-02-21T03:21:49;99364.28;;;6.87;81.91
12215;BME280;6170;42.206;24.142;2024-02-21T03:24:17;99371.28;;;6.88;81.65
12215;BME280;6170;42.206;24.142;2024-02-21T03:26:44;99338.34;;;6.97;81.04
12215;BME280;6170;42.206;24.142;2024-02-21T03:29:11;99527.81;;;8.08;81.22
12215;BME280;6170;42.206;24.142;2024-02-21T03:31:38;99372.97;;;6.89;81.95
12215;BME280;6170;42.206;24.142;2024-02-21T03:34:07;99387.63;;;6.93;82.00
12215;BME280;6170;42.206;24.142;2024-02-21T03:36:34;99382.44;;;6.83;81.54
12215;BME280;6170;42.206;24.142;2024-02-21T03:39:01;99385.16;;;7.07;81.20
12215;BME280;6170;42.206;24.142;2024-02-21T03:41:29;99374.47;;;6.99;80.75
12215;BME280;6170;42.206;24.142;2024-02-21T03:43:56;99534.81;;;8.01;81.08
12215;BME280;6170;42.206;24.142;2024-02-21T03:46:24;99268.13;;;6.07;81.66
12215;BME280;6170;42.206;24.142;2024-02-21T03:48:51;99387.06;;;6.73;82.67
12215;BME280;6170;42.206;24.142;2024-02-21T03:51:19;99326.97;;;6.54;82.21
12215;BME280;6170;42.206;24.142;2024-02-21T03:53:46;99398.13;;;7.27;80.61
12215;BME280;6170;42.206;24.142;2024-02-21T03:56:13;99398.63;;;7.22;81.34
12215;BME280;6170;42.206;24.142;2024-02-21T03:58:40;99388.97;;;6.97;81.28
12215;BME280;6170;42.206;24.142;2024-02-21T04:01:07;99448.13;;;7.41;80.79
12215;BME280;6170;42.206;24.142;2024-02-21T04:03:34;99371.78;;;6.99;80.34
12215;BME280;6170;42.206;24.142;2024-02-21T04:06:01;99436.81;;;7.39;80.74
12215;BME280;6170;42.206;24.142;2024-02-21T04:08:29;99331.97;;;6.57;80.92
12215;BME280;6170;42.206;24.142;2024-02-21T04:10:56;99524.47;;;8.14;79.88
12215;BME280;6170;42.206;24.142;2024-02-21T04:13:23;99376.81;;;7.35;79.14
12215;BME280;6170;42.206;24.142;2024-02-21T04:15:51;99370.50;;;7.28;77.84
12215;BME280;6170;42.206;24.142;2024-02-21T04:18:18;99353.66;;;7.11;79.05
12215;BME280;6170;42.206;24.142;2024-02-21T04:20:45;99501.31;;;7.66;79.72
12215;BME280;6170;42.206;24.142;2024-02-21T04:23:11;99525.50;;;8.13;79.23
12215;BME280;6170;42.206;24.142;2024-02-21T04:25:40;99380.00;;;7.30;78.00
12215;BME280;6170;42.206;24.142;2024-02-21T04:28:07;99522.16;;;8.36;78.73
12215;BME280;6170;42.206;24.142;2024-02-21T04:30:33;99376.81;;;7.27;79.19
12215;BME280;6170;42.206;24.142;2024-02-21T04:33:00;99364.50;;;7.34;78.15
12215;BME280;6170;42.206;24.142;2024-02-21T04:35:27;99385.13;;;7.64;77.51
12215;BME280;6170;42.206;24.142;2024-02-21T04:37:54;99524.28;;;8.24;77.79
12215;BME280;6170;42.206;24.142;2024-02-21T04:40:21;99537.28;;;8.51;77.67
12215;BME280;6170;42.206;24.142;2024-02-21T04:42:50;99398.63;;;7.62;77.87
12215;BME280;6170;42.206;24.142;2024-02-21T04:45:16;99540.81;;;8.44;77.73
12215;BME280;6170;42.206;24.142;2024-02-21T04:47:43;99392.00;;;7.34;78.81
12215;BME280;6170;42.206;24.142;2024-02-21T04:50:10;99357.31;;;7.02;78.96
12215;BME280;6170;42.206;24.142;2024-02-21T04:52:38;99539.16;;;8.10;79.10
12215;BME280;6170;42.206;24.142;2024-02-21T04:55:05;99342.34;;;6.93;79.44
12215;BME280;6170;42.206;24.142;2024-02-21T04:57:32;99410.66;;;7.34;79.00
12215;BME280;6170;42.206;24.142;2024-02-21T05:00:01;99517.16;;;7.84;79.51
12215;BME280;6170;42.206;24.142;2024-02-21T05:02:29;99390.66;;;7.38;78.91
12215;BME280;6170;42.206;24.142;2024-02-21T05:04:56;99549.00;;;8.42;78.04
12215;BME280;6170;42.206;24.142;2024-02-21T05:07:23;99413.81;;;7.38;78.17
12215;BME280;6170;42.206;24.142;2024-02-21T05:09:49;99553.16;;;7.88;78.59
12215;BME280;6170;42.206;24.142;2024-02-21T05:12:16;99395.81;;;7.07;79.10
12215;BME280;6170;42.206;24.142;2024-02-21T05:14:43;99386.47;;;7.11;78.77
12215;BME280;6170;42.206;24.142;2024-02-21T05:17:11;99392.81;;;7.10;77.86
12215;BME280;6170;42.206;24.142;2024-02-21T05:19:38;99394.13;;;7.22;78.35
12215;BME280;6170;42.206;24.142;2024-02-21T05:22:05;99347.50;;;7.02;77.44
12215;BME280;6170;42.206;24.142;2024-02-21T05:24:32;99382.78;;;6.96;78.04
12215;BME280;6170;42.206;24.142;2024-02-21T05:26:59;99551.16;;;8.14;77.71
12215;BME280;6170;42.206;24.142;2024-02-21T05:29:26;99387.31;;;7.12;77.96
12215;BME280;6170;42.206;24.142;2024-02-21T05:31:56;99375.13;;;7.01;77.34
12215;BME280;6170;42.206;24.142;2024-02-21T05:34:25;99382.97;;;7.19;77.41
12215;BME280;6170;42.206;24.142;2024-02-21T05:36:52;99437.81;;;7.46;77.85
12215;BME280;6170;42.206;24.142;2024-02-21T05:39:19;99405.47;;;7.33;77.09
12215;BME280;6170;42.206;24.142;2024-02-21T05:41:48;99418.16;;;7.39;77.54
12215;BME280;6170;42.206;24.142;2024-02-21T05:44:15;99572.53;;;8.23;78.42
12215;BME280;6170;42.206;24.142;2024-02-21T05:46:42;99451.97;;;7.54;77.95
12215;BME280;6170;42.206;24.142;2024-02-21T05:49:09;99429.97;;;7.28;77.85
12215;BME280;6170;42.206;24.142;2024-02-21T05:51:37;99430.97;;;7.51;76.88
12215;BME280;6170;42.206;24.142;2024-02-21T05:54:04;99546.97;;;8.28;76.98
12215;BME280;6170;42.206;24.142;2024-02-21T05:56:32;99433.47;;;7.61;76.05
12215;BME280;6170;42.206;24.142;2024-02-21T05:58:59;99416.28;;;7.31;76.99
12215;BME280;6170;42.206;24.142;2024-02-21T06:01:26;99457.13;;;7.80;76.91
12215;BME280;6170;42.206;24.142;2024-02-21T06:03:53;99432.97;;;7.82;75.99
12215;BME280;6170;42.206;24.142;2024-02-21T06:06:20;99419.47;;;7.43;76.03
12215;BME280;6170;42.206;24.142;2024-02-21T06:08:49;99437.28;;;7.66;76.25
12215;BME280;6170;42.206;24.142;2024-02-21T06:11:16;99438.31;;;7.65;75.99
12215;BME280;6170;42.206;24.142;2024-02-21T06:13:43;99397.31;;;7.50;75.70
12215;BME280;6170;42.206;24.142;2024-02-21T06:16:09;99594.31;;;8.83;75.17
12215;BME280;6170;42.206;24.142;2024-02-21T06:18:36;99446.91;;;8.08;74.41
12215;BME280;6170;42.206;24.142;2024-02-21T06:21:04;99440.63;;;7.85;74.91
12215;BME280;6170;42.206;24.142;2024-02-21T06:23:31;99459.06;;;8.10;74.46
12215;BME280;6170;42.206;24.142;2024-02-21T06:25:59;99601.72;;;9.20;74.15
12215;BME280;6170;42.206;24.142;2024-02-21T06:28:26;99449.13;;;7.96;73.89
12215;BME280;6170;42.206;24.142;2024-02-21T06:30:53;99454.03;;;8.24;73.44
12215;BME280;6170;42.206;24.142;2024-02-21T06:33:20;99419.38;;;8.07;73.26
12215;BME280;6170;42.206;24.142;2024-02-21T06:35:50;99477.25;;;8.78;72.80
12215;BME280;6170;42.206;24.142;2024-02-21T06:38:19;99473.28;;;8.74;71.84
12215;BME280;6170;42.206;24.142;2024-02-21T06:40:46;99430.63;;;8.81;71.79
12215;BME280;6170;42.206;24.142;2024-02-21T06:43:18;99478.53;;;9.21;72.18
12215;BME280;6170;42.206;24.142;2024-02-21T06:45:46;99474.94;;;9.37;70.69
12215;BME280;6170;42.206;24.142;2024-02-21T06:48:16;99612.78;;;10.01;70.08
12215;BME280;6170;42.206;24.142;2024-02-21T06:50:43;99451.84;;;9.13;70.73
12215;BME280;6170;42.206;24.142;2024-02-21T06:53:10;99588.88;;;10.00;69.44
12215;BME280;6170;42.206;24.142;2024-02-21T06:55:37;99489.13;;;9.37;68.72
12215;BME280;6170;42.206;24.142;2024-02-21T06:58:04;99450.94;;;9.21;68.84
12215;BME280;6170;42.206;24.142;2024-02-21T07:00:35;99469.38;;;9.61;68.20
12215;BME280;6170;42.206;24.142;2024-02-21T07:03:02;99473.56;;;10.01;67.88
12215;BME280;6170;42.206;24.142;2024-02-21T07:05:29;99497.03;;;10.66;67.64
12215;BME280;6170;42.206;24.142;2024-02-21T07:07:56;99478.47;;;11.15;66.20
12215;BME280;6170;42.206;24.142;2024-02-21T07:10:23;99617.19;;;12.29;65.21
12215;BME280;6170;42.206;24.142;2024-02-21T07:12:50;99456.44;;;11.62;63.19
12215;BME280;6170;42.206;24.142;2024-02-21T07:15:18;99618.31;;;13.18;62.53
12215;BME280;6170;42.206;24.142;2024-02-21T07:17:46;99482.53;;;12.17;62.20
12215;BME280;6170;42.206;24.142;2024-02-21T07:20:13;99457.25;;;11.20;63.43
12215;BME280;6170;42.206;24.142;2024-02-21T07:22:40;99475.63;;;11.80;63.04
12215;BME280;6170;42.206;24.142;2024-02-21T07:25:07;99469.09;;;12.45;60.41
12215;BME280;6170;42.206;24.142;2024-02-21T07:27:34;99613.13;;;13.16;59.62
12215;BME280;6170;42.206;24.142;2024-02-21T07:30:03;99483.47;;;12.31;60.47
12215;BME280;6170;42.206;24.142;2024-02-21T07:32:30;99485.13;;;11.40;62.02
12215;BME280;6170;42.206;24.142;2024-02-21T07:34:58;99618.97;;;12.22;62.30
12215;BME280;6170;42.206;24.142;2024-02-21T07:37:25;99481.94;;;11.15;61.77
12215;BME280;6170;42.206;24.142;2024-02-21T07:39:52;99615.88;;;11.82;62.90
12215;BME280;6170;42.206;24.142;2024-02-21T07:42:19;99494.50;;;11.30;62.69
12215;BME280;6170;42.206;24.142;2024-02-21T07:44:46;99481.16;;;11.72;61.66
12215;BME280;6170;42.206;24.142;2024-02-21T07:47:13;99627.72;;;13.07;59.39
12215;BME280;6170;42.206;24.142;2024-02-21T07:49:44;99433.38;;;12.57;58.97
12215;BME280;6170;42.206;24.142;2024-02-21T07:52:12;99491.41;;;13.21;59.45
12215;BME280;6170;42.206;24.142;2024-02-21T07:54:39;99478.63;;;13.42;57.59
12215;BME280;6170;42.206;24.142;2024-02-21T07:57:06;99612.16;;;15.29;55.39
12215;BME280;6170;42.206;24.142;2024-02-21T07:59:33;99489.53;;;15.05;55.18
12215;BME280;6170;42.206;24.142;2024-02-21T08:02:00;99493.53;;;14.90;54.04
12215;BME280;6170;42.206;24.142;2024-02-21T08:04:28;99598.09;;;15.14;53.11
12215;BME280;6170;42.206;24.142;2024-02-21T08:06:55;99498.56;;;14.73;53.64
12215;BME280;6170;42.206;24.142;2024-02-21T08:09:26;99483.38;;;14.85;53.51
12215;BME280;6170;42.206;24.142;2024-02-21T08:11:54;99444.81;;;14.71;53.51
12215;BME280;6170;42.206;24.142;2024-02-21T08:14:21;99600.84;;;15.65;52.95
12215;BME280;6170;42.206;24.142;2024-02-21T08:16:50;99474.34;;;15.11;51.47
12215;BME280;6170;42.206;24.142;2024-02-21T08:19:17;99591.50;;;15.99;51.99
12215;BME280;6170;42.206;24.142;2024-02-21T08:21:44;99461.81;;;15.23;51.51
12215;BME280;6170;42.206;24.142;2024-02-21T08:24:12;99457.38;;;14.97;51.73
12215;BME280;6170;42.206;24.142;2024-02-21T08:26:41;99441.25;;;14.84;52.00
12215;BME280;6170;42.206;24.142;2024-02-21T08:29:10;99598.75;;;16.05;51.91
12215;BME280;6170;42.206;24.142;2024-02-21T08:31:37;99447.31;;;15.62;50.95
12215;BME280;6170;42.206;24.142;2024-02-21T08:34:03;99390.47;;;15.44;50.77
12215;BME280;6170;42.206;24.142;2024-02-21T08:36:31;99473.50;;;16.11;51.95
12215;BME280;6170;42.206;24.142;2024-02-21T08:38:58;99464.69;;;15.97;50.84
12215;BME280;6170;42.206;24.142;2024-02-21T08:41:25;99600.25;;;16.82;49.59
12215;BME280;6170;42.206;24.142;2024-02-21T08:43:54;99422.34;;;15.28;48.79
12215;BME280;6170;42.206;24.142;2024-02-21T08:46:21;99493.06;;;15.50;49.16
12215;BME280;6170;42.206;24.142;2024-02-21T08:48:50;99473.72;;;14.51;51.81
12215;BME280;6170;42.206;24.142;2024-02-21T08:51:17;99469.09;;;14.71;51.44
12215;BME280;6170;42.206;24.142;2024-02-21T08:53:44;99552.34;;;15.32;50.48
12215;BME280;6170;42.206;24.142;2024-02-21T08:56:11;99449.22;;;14.59;52.06
12215;BME280;6170;42.206;24.142;2024-02-21T08:58:39;99591.22;;;16.13;50.50
12215;BME280;6170;42.206;24.142;2024-02-21T09:01:08;99470.72;;;15.68;50.76
12215;BME280;6170;42.206;24.142;2024-02-21T09:03:36;99379.53;;;15.32;50.10
12215;BME280;6170;42.206;24.142;2024-02-21T09:06:04;99604.44;;;17.02;49.87
12215;BME280;6170;42.206;24.142;2024-02-21T09:08:31;99503.34;;;16.47;48.97
12215;BME280;6170;42.206;24.142;2024-02-21T09:10:59;99463.25;;;16.20;48.58
12215;BME280;6170;42.206;24.142;2024-02-21T09:13:26;99465.84;;;16.51;47.62
12215;BME280;6170;42.206;24.142;2024-02-21T09:15:54;99407.91;;;16.40;44.34
12215;BME280;6170;42.206;24.142;2024-02-21T09:18:22;99446.94;;;16.87;47.97
12215;BME280;6170;42.206;24.142;2024-02-21T09:20:49;99438.75;;;16.94;45.56
12215;BME280;6170;42.206;24.142;2024-02-21T09:23:16;99420.97;;;16.43;46.74
12215;BME280;6170;42.206;24.142;2024-02-21T09:25:45;99580.13;;;17.99;46.77
12215;BME280;6170;42.206;24.142;2024-02-21T09:28:12;99421.81;;;16.44;45.98
12215;BME280;6170;42.206;24.142;2024-02-21T09:30:39;99573.81;;;17.20;46.61
12215;BME280;6170;42.206;24.142;2024-02-21T09:33:06;99446.78;;;16.46;46.95
12215;BME280;6170;42.206;24.142;2024-02-21T09:35:34;99570.44;;;17.61;46.80
12215;BME280;6170;42.206;24.142;2024-02-21T09:38:01;99465.03;;;16.50;46.55
12215;BME280;6170;42.206;24.142;2024-02-21T09:40:29;99460.16;;;15.66;47.69
12215;BME280;6170;42.206;24.142;2024-02-21T09:43:03;99450.72;;;16.25;48.74
12215;BME280;6170;42.206;24.142;2024-02-21T09:45:33;99451.03;;;16.35;48.02
12215;BME280;6170;42.206;24.142;2024-02-21T09:48:19;99449.06;;;17.33;47.09
12215;BME280;6170;42.206;24.142;2024-02-21T09:50:50;99429.59;;;16.58;47.80
12215;BME280;6170;42.206;24.142;2024-02-21T09:53:18;99272.81;;;15.29;48.64
12215;BME280;6170;42.206;24.142;2024-02-21T09:55:46;99423.53;;;14.30;50.04
12215;BME280;6170;42.206;24.142;2024-02-21T09:58:15;99429.78;;;14.37;50.49
12215;BME280;6170;42.206;24.142;2024-02-21T10:00:42;99566.22;;;14.65;49.14
12215;BME280;6170;42.206;24.142;2024-02-21T10:03:09;99428.75;;;14.06;50.78
12215;BME280;6170;42.206;24.142;2024-02-21T10:05:36;99411.34;;;14.02;51.43
12215;BME280;6170;42.206;24.142;2024-02-21T10:08:06;99386.47;;;14.00;50.09
12215;BME280;6170;42.206;24.142;2024-02-21T10:10:41;99420.19;;;14.48;47.06
12215;BME280;6170;42.206;24.142;2024-02-21T10:13:09;99406.56;;;14.17;48.26
12215;BME280;6170;42.206;24.142;2024-02-21T10:15:36;99547.06;;;15.57;46.38
12215;BME280;6170;42.206;24.142;2024-02-21T10:18:04;99412.78;;;14.88;46.72
12215;BME280;6170;42.206;24.142;2024-02-21T10:20:32;99393.88;;;14.95;48.15
12215;BME280;6170;42.206;24.142;2024-02-21T10:23:03;99516.50;;;15.12;48.21
12215;BME280;6170;42.206;24.142;2024-02-21T10:25:35;99432.03;;;15.36;47.41
12215;BME280;6170;42.206;24.142;2024-02-21T10:28:04;99404.09;;;14.86;48.62
12215;BME280;6170;42.206;24.142;2024-02-21T10:30:31;99529.88;;;15.83;46.59
12215;BME280;6170;42.206;24.142;2024-02-21T10:32:58;99390.22;;;14.76;46.93
12215;BME280;6170;42.206;24.142;2024-02-21T10:35:28;99372.22;;;15.08;47.50
12215;BME280;6170;42.206;24.142;2024-02-21T10:37:56;99366.72;;;16.20;47.91
12215;BME280;6170;42.206;24.142;2024-02-21T10:40:24;99330.16;;;16.72;45.37
12215;BME280;6170;42.206;24.142;2024-02-21T10:42:56;99365.78;;;17.82;43.62
12215;BME280;6170;42.206;24.142;2024-02-21T10:45:26;99502.53;;;17.86;40.63
12215;BME280;6170;42.206;24.142;2024-02-21T10:47:55;99359.19;;;17.36;43.96
12215;BME280;6170;42.206;24.142;2024-02-21T10:50:25;99357.31;;;17.90;42.98
12215;BME280;6170;42.206;24.142;2024-02-21T10:53:00;99379.13;;;17.83;43.28
12215;BME280;6170;42.206;24.142;2024-02-21T10:55:38;99476.75;;;18.18;42.33
12215;BME280;6170;42.206;24.142;2024-02-21T10:58:08;99307.66;;;17.01;42.35
12215;BME280;6170;42.206;24.142;2024-02-21T11:00:36;99464.47;;;18.51;42.39
12215;BME280;6170;42.206;24.142;2024-02-21T11:03:04;99301.78;;;17.04;43.90
12215;BME280;6170;42.206;24.142;2024-02-21T11:05:32;99324.38;;;17.51;44.20
12215;BME280;6170;42.206;24.142;2024-02-21T11:07:59;99326.88;;;17.65;43.45
12215;BME280;6170;42.206;24.142;2024-02-21T11:10:27;99327.78;;;18.28;41.89
12215;BME280;6170;42.206;24.142;2024-02-21T11:12:54;99323.63;;;18.37;42.59
12215;BME280;6170;42.206;24.142;2024-02-21T11:15:32;99291.41;;;17.89;41.65
12215;BME280;6170;42.206;24.142;2024-02-21T11:17:59;99326.34;;;17.44;41.76
12215;BME280;6170;42.206;24.142;2024-02-21T11:20:33;99319.59;;;17.24;42.53
12215;BME280;6170;42.206;24.142;2024-02-21T11:23:00;99452.53;;;17.22;43.52
12215;BME280;6170;42.206;24.142;2024-02-21T11:25:28;99320.63;;;16.15;44.16
12215;BME280;6170;42.206;24.142;2024-02-21T11:28:00;99445.16;;;16.63;45.62
12215;BME280;6170;42.206;24.142;2024-02-21T11:30:27;99293.31;;;15.80;45.04
12215;BME280;6170;42.206;24.142;2024-02-21T11:33:00;99308.16;;;15.46;46.22
12215;BME280;6170;42.206;24.142;2024-02-21T11:35:31;99307.22;;;15.65;44.59
12215;BME280;6170;42.206;24.142;2024-02-21T11:38:08;99324.84;;;14.80;45.97
12215;BME280;6170;42.206;24.142;2024-02-21T11:40:37;99441.59;;;16.01;46.35
12215;BME280;6170;42.206;24.142;2024-02-21T11:43:04;99319.25;;;15.13;45.81
12215;BME280;6170;42.206;24.142;2024-02-21T11:45:31;99304.09;;;15.37;43.83
12215;BME280;6170;42.206;24.142;2024-02-21T11:48:00;99301.56;;;15.17;45.91
12215;BME280;6170;42.206;24.142;2024-02-21T11:50:29;99424.91;;;15.48;46.99
12215;BME280;6170;42.206;24.142;2024-02-21T11:52:57;99302.47;;;15.05;46.87
12215;BME280;6170;42.206;24.142;2024-02-21T11:55:24;99289.66;;;15.25;44.04
12215;BME280;6170;42.206;24.142;2024-02-21T11:57:51;99257.81;;;15.09;46.15
12215;BME280;6170;42.206;24.142;2024-02-21T12:00:19;99299.56;;;15.99;45.15
12215;BME280;6170;42.206;24.142;2024-02-21T12:02:47;99258.81;;;16.00;45.65
12215;BME280;6170;42.206;24.142;2024-02-21T12:05:18;99269.69;;;16.78;45.52
12215;BME280;6170;42.206;24.142;2024-02-21T12:07:46;99286.66;;;15.83;45.60
12215;BME280;6170;42.206;24.142;2024-02-21T12:10:13;99408.09;;;15.78;47.09
12215;BME280;6170;42.206;24.142;2024-02-21T12:12:40;99381.47;;;15.50;47.18
12215;BME280;6170;42.206;24.142;2024-02-21T12:15:08;99290.78;;;14.48;47.81
12215;BME280;6170;42.206;24.142;2024-02-21T12:17:35;99252.63;;;13.87;48.87
12215;BME280;6170;42.206;24.142;2024-02-21T12:20:03;99249.19;;;14.69;48.22
12215;BME280;6170;42.206;24.142;2024-02-21T12:22:36;99247.66;;;15.29;49.21
12215;BME280;6170;42.206;24.142;2024-02-21T12:25:03;99248.75;;;15.53;48.82
12215;BME280;6170;42.206;24.142;2024-02-21T12:27:33;99229.47;;;15.43;47.32
12215;BME280;6170;42.206;24.142;2024-02-21T12:30:00;99242.44;;;16.13;47.81
12215;BME280;6170;42.206;24.142;2024-02-21T12:32:31;99241.91;;;16.53;45.90
12215;BME280;6170;42.206;24.142;2024-02-21T12:34:58;99228.56;;;15.73;45.22
12215;BME280;6170;42.206;24.142;2024-02-21T12:37:25;99369.75;;;17.26;45.24
12215;BME280;6170;42.206;24.142;2024-02-21T12:39:53;99228.94;;;16.43;44.33
12215;BME280;6170;42.206;24.142;2024-02-21T12:42:20;99203.44;;;16.21;44.26
12215;BME280;6170;42.206;24.142;2024-02-21T12:44:49;99224.66;;;15.88;45.92
12215;BME280;6170;42.206;24.142;2024-02-21T12:47:16;99361.19;;;16.70;45.30
12215;BME280;6170;42.206;24.142;2024-02-21T12:49:44;99217.50;;;16.11;45.28
12215;BME280;6170;42.206;24.142;2024-02-21T12:52:11;99354.56;;;16.47;44.78
12215;BME280;6170;42.206;24.142;2024-02-21T12:54:38;99226.97;;;14.98;46.32
12215;BME280;6170;42.206;24.142;2024-02-21T12:57:07;99131.13;;;14.39;46.14
12215;BME280;6170;42.206;24.142;2024-02-21T12:59:33;99208.53;;;14.95;45.45
12215;BME280;6170;42.206;24.142;2024-02-21T13:02:00;99355.72;;;14.91;45.44
12215;BME280;6170;42.206;24.142;2024-02-21T13:04:27;99195.34;;;14.11;44.89
12215;BME280;6170;42.206;24.142;2024-02-21T13:06:54;99352.78;;;14.93;44.13